createdAt,value
2022-11-21T00:01:25.938Z,4.62
2022-11-21T00:03:54.019Z,4.63
2022-11-21T00:06:21.936Z,4.67
2022-11-21T00:08:49.814Z,4.67
2022-11-21T00:11:17.602Z,4.72
2022-11-21T00:13:45.389Z,4.70
2022-11-21T00:16:15.223Z,4.70
2022-11-21T00:18:44.420Z,4.71
2022-11-21T00:21:17.482Z,4.73
2022-11-21T00:23:46.408Z,4.77
2022-11-21T00:26:15.266Z,4.71
2022-11-21T00:28:43.242Z,4.77
2022-11-21T00:31:21.237Z,4.78
2022-11-21T00:33:48.739Z,4.77
2022-11-21T00:36:16.714Z,4.73
2022-11-21T00:38:44.397Z,4.80
2022-11-21T00:41:11.790Z,4.79
2022-11-21T00:43:39.501Z,4.80
2022-11-21T00:46:06.946Z,4.80
2022-11-21T00:48:34.389Z,4.79
2022-11-21T00:51:02.184Z,4.78
2022-11-21T00:53:30.291Z,4.74
2022-11-21T00:55:58.069Z,4.75
2022-11-21T00:58:26.218Z,4.72
2022-11-21T01:01:01.847Z,4.67
2022-11-21T01:03:29.690Z,4.73
2022-11-21T01:06:04.225Z,4.71
2022-11-21T01:08:32.402Z,4.69
2022-11-21T01:11:03.566Z,4.67
2022-11-21T01:13:31.278Z,4.67
2022-11-21T01:16:11.846Z,4.69
2022-11-21T01:18:39.396Z,4.68
2022-11-21T01:21:12.999Z,4.68
2022-11-21T01:23:40.463Z,4.73
2022-11-21T01:26:11.449Z,4.71
2022-11-21T01:28:38.922Z,4.65
2022-11-21T01:31:09.034Z,4.64
2022-11-21T01:33:38.102Z,4.61
2022-11-21T01:36:10.119Z,4.67
2022-11-21T01:38:39.183Z,4.67
2022-11-21T01:41:08.110Z,4.62
2022-11-21T01:43:36.049Z,4.63
2022-11-21T01:46:09.492Z,4.60
2022-11-21T01:48:42.854Z,4.57
2022-11-21T01:51:25.761Z,4.58
2022-11-21T01:54:36.682Z,4.60
2022-11-21T01:57:08.393Z,4.55
2022-11-21T01:59:54.721Z,4.55
2022-11-21T02:02:26.228Z,4.51
2022-11-21T02:04:55.167Z,4.60
2022-11-21T02:07:24.922Z,4.68
2022-11-21T02:09:56.080Z,4.66
2022-11-21T02:12:49.115Z,4.64
2022-11-21T02:15:18.351Z,4.68
2022-11-21T02:17:46.026Z,4.66
2022-11-21T02:20:16.990Z,4.68
2022-11-21T02:22:54.922Z,4.72
2022-11-21T02:25:26.742Z,4.73
2022-11-21T02:27:59.221Z,4.76
2022-11-21T02:30:28.570Z,4.73
2022-11-21T02:32:56.531Z,4.76
2022-11-21T02:35:23.999Z,4.76
2022-11-21T02:37:58.338Z,4.76
2022-11-21T02:40:31.658Z,4.79
2022-11-21T02:43:03.020Z,4.80
2022-11-21T02:45:42.719Z,4.73
2022-11-21T02:48:11.566Z,4.74
2022-11-21T02:50:41.589Z,4.74
2022-11-21T02:53:12.519Z,4.70
2022-11-21T02:55:40.517Z,4.72
2022-11-21T02:58:07.949Z,4.79
2022-11-21T03:00:37.224Z,4.76
2022-11-21T03:03:05.344Z,4.77
2022-11-21T03:05:33.281Z,4.77
2022-11-21T03:08:00.657Z,4.73
2022-11-21T03:10:28.470Z,4.70
2022-11-21T03:13:01.077Z,4.75
2022-11-21T03:15:31.274Z,4.74
2022-11-21T03:18:01.157Z,4.71
2022-11-21T03:20:30.056Z,4.74
2022-11-21T03:22:57.494Z,4.75
2022-11-21T03:25:24.896Z,4.77
2022-11-21T03:27:53.628Z,4.77
2022-11-21T03:30:23.020Z,4.77
2022-11-21T03:32:50.474Z,4.80
2022-11-21T03:35:18.218Z,4.74
2022-11-21T03:37:48.507Z,4.67
2022-11-21T03:40:15.826Z,4.66
2022-11-21T03:42:43.699Z,4.67
2022-11-21T03:45:11.385Z,4.72
2022-11-21T03:47:38.844Z,4.76
2022-11-21T03:50:07.049Z,4.74
2022-11-21T03:52:34.466Z,4.67
2022-11-21T03:55:01.891Z,4.65
2022-11-21T03:57:29.609Z,4.65
2022-11-21T03:59:56.975Z,4.65
2022-11-21T04:02:24.360Z,4.60
2022-11-21T04:04:52.110Z,4.61
2022-11-21T04:07:19.583Z,4.62
2022-11-21T04:09:47.039Z,4.63
2022-11-21T04:12:14.708Z,4.60
2022-11-21T04:14:42.118Z,4.63
2022-11-21T04:17:09.546Z,4.63
2022-11-21T04:19:37.278Z,4.55
2022-11-21T04:22:04.668Z,4.58
2022-11-21T04:24:32.053Z,4.55
2022-11-21T04:26:59.770Z,4.52
2022-11-21T04:29:27.148Z,4.51
2022-11-21T04:31:54.518Z,4.51
2022-11-21T04:34:22.239Z,4.51
2022-11-21T04:36:49.669Z,4.51
2022-11-21T04:39:17.101Z,4.51
2022-11-21T04:41:44.778Z,4.48
2022-11-21T04:44:12.196Z,4.50
2022-11-21T04:46:39.566Z,4.48
2022-11-21T04:49:07.237Z,4.45
2022-11-21T04:51:34.709Z,4.44
2022-11-21T04:54:02.177Z,4.50
2022-11-21T04:56:29.903Z,4.48
2022-11-21T04:58:57.270Z,4.56
2022-11-21T05:01:24.667Z,4.52
2022-11-21T05:03:52.878Z,4.50
2022-11-21T05:06:20.254Z,4.51
2022-11-21T05:08:51.733Z,4.51
2022-11-21T05:11:39.163Z,4.54
2022-11-21T05:14:06.618Z,4.50
2022-11-21T05:16:34.755Z,4.52
2022-11-21T05:19:02.164Z,4.51
2022-11-21T05:21:29.601Z,4.52
2022-11-21T05:23:57.266Z,4.49
2022-11-21T05:26:24.689Z,4.47
2022-11-21T05:28:52.126Z,4.46
2022-11-21T05:31:19.796Z,4.45
2022-11-21T05:33:47.501Z,4.44
2022-11-21T05:36:14.921Z,4.47
2022-11-21T05:38:43.078Z,4.54
2022-11-21T05:41:10.500Z,4.43
2022-11-21T05:43:47.322Z,4.44
2022-11-21T05:46:20.495Z,4.43
2022-11-21T05:48:49.399Z,4.40
2022-11-21T05:51:18.115Z,4.45
2022-11-21T05:53:45.793Z,4.46
2022-11-21T05:56:19.363Z,4.45
2022-11-21T05:58:47.256Z,4.50
2022-11-21T06:01:15.442Z,4.48
2022-11-21T06:03:43.483Z,4.48
2022-11-21T06:06:13.717Z,4.48
2022-11-21T06:08:43.556Z,4.45
2022-11-21T06:11:16.702Z,4.44
2022-11-21T06:13:44.195Z,4.43
2022-11-21T06:16:14.518Z,4.42
2022-11-21T06:18:43.962Z,4.48
2022-11-21T06:21:17.321Z,4.44
2022-11-21T06:23:45.790Z,4.46
2022-11-21T06:26:16.289Z,4.46
2022-11-21T06:28:44.891Z,4.45
2022-11-21T06:31:20.942Z,4.45
2022-11-21T06:33:52.505Z,4.46
2022-11-21T06:36:20.553Z,4.45
2022-11-21T06:38:48.339Z,4.49
2022-11-21T06:41:19.684Z,4.46
2022-11-21T06:43:47.775Z,4.47
2022-11-21T06:46:15.810Z,4.43
2022-11-21T06:48:43.721Z,4.46
2022-11-21T06:51:20.360Z,4.49
2022-11-21T06:53:55.955Z,4.50
2022-11-21T06:56:25.866Z,4.53
2022-11-21T06:58:53.738Z,4.57
2022-11-21T07:01:21.891Z,4.63
2022-11-21T07:03:49.814Z,4.60
2022-11-21T07:06:17.284Z,4.62
2022-11-21T07:08:44.677Z,4.64
2022-11-21T07:11:29.847Z,4.65
2022-11-21T07:13:57.311Z,4.68
2022-11-21T07:16:26.433Z,4.64
2022-11-21T07:18:54.041Z,4.63
2022-11-21T07:21:21.726Z,4.63
2022-11-21T07:23:49.442Z,4.62
2022-11-21T07:26:16.907Z,4.64
2022-11-21T07:28:44.314Z,4.65
2022-11-21T07:31:14.255Z,4.71
2022-11-21T07:33:46.865Z,4.72
2022-11-21T07:36:15.016Z,4.78
2022-11-21T07:38:42.559Z,4.78
2022-11-21T07:41:10.277Z,4.81
2022-11-21T07:43:38.034Z,4.81
2022-11-21T07:46:05.496Z,4.87
2022-11-21T07:48:32.962Z,4.91
2022-11-21T07:51:04.150Z,4.90
2022-11-21T07:53:31.669Z,4.90
2022-11-21T07:55:59.935Z,4.96
2022-11-21T07:58:27.992Z,4.99
2022-11-21T08:00:55.427Z,5.03
2022-11-21T08:03:25.305Z,5.04
2022-11-21T08:05:52.774Z,5.03
2022-11-21T08:08:20.262Z,5.08
2022-11-21T08:10:48.177Z,5.07
2022-11-21T08:13:15.697Z,5.08
2022-11-21T08:15:43.145Z,5.11
2022-11-21T08:18:13.101Z,5.10
2022-11-21T08:20:40.682Z,5.08
2022-11-21T08:23:08.242Z,5.16
2022-11-21T08:25:38.325Z,5.13
2022-11-21T08:28:06.592Z,5.05
2022-11-21T08:30:35.394Z,5.07
2022-11-21T08:33:03.970Z,5.07
2022-11-21T08:35:31.717Z,5.11
2022-11-21T08:38:02.275Z,5.21
2022-11-21T08:40:31.790Z,5.22
2022-11-21T08:43:05.114Z,5.13
2022-11-21T08:45:34.283Z,5.10
2022-11-21T08:48:02.284Z,5.12
2022-11-21T08:50:29.759Z,5.10
2022-11-21T08:53:01.692Z,5.09
2022-11-21T08:55:30.373Z,5.17
2022-11-21T08:57:58.761Z,5.25
2022-11-21T09:00:26.964Z,5.35
2022-11-21T09:02:54.409Z,5.40
2022-11-21T09:05:22.110Z,5.38
2022-11-21T09:07:56.464Z,5.44
2022-11-21T09:10:25.550Z,5.47
2022-11-21T09:12:53.482Z,5.55
2022-11-21T09:15:39.656Z,5.66
2022-11-21T09:18:08.252Z,5.73
2022-11-21T09:20:41.389Z,5.77
2022-11-21T09:23:11.778Z,5.78
2022-11-21T09:25:39.626Z,5.84
2022-11-21T09:28:08.893Z,6.02
2022-11-21T09:30:37.521Z,6.27
2022-11-21T09:33:07.507Z,6.44
2022-11-21T09:35:34.959Z,6.53
2022-11-21T09:38:02.716Z,6.69
2022-11-21T09:40:31.923Z,6.76
2022-11-21T09:43:22.791Z,6.75
2022-11-21T09:46:09.433Z,6.84
2022-11-21T09:48:58.391Z,6.88
2022-11-21T09:51:29.575Z,6.87
2022-11-21T09:54:07.678Z,6.98
2022-11-21T09:56:39.848Z,7.04
2022-11-21T09:59:14.925Z,7.15
2022-11-21T10:01:42.698Z,7.23
2022-11-21T10:04:10.555Z,7.54
2022-11-21T10:06:47.918Z,7.59
2022-11-21T10:09:39.507Z,7.66
2022-11-21T10:12:37.402Z,8.19
2022-11-21T10:15:43.465Z,8.51
2022-11-21T10:18:26.200Z,8.48
2022-11-21T10:21:12.149Z,8.48
2022-11-21T10:23:42.415Z,8.52
2022-11-21T10:26:17.912Z,8.51
2022-11-21T10:28:57.268Z,8.44
2022-11-21T10:31:28.370Z,8.57
2022-11-21T10:33:57.475Z,8.67
2022-11-21T10:36:40.743Z,8.77
2022-11-21T10:39:22.635Z,8.81
2022-11-21T10:42:00.755Z,8.98
2022-11-21T10:44:48.217Z,9.17
2022-11-21T10:47:27.987Z,9.22
2022-11-21T10:50:10.800Z,9.38
2022-11-21T10:52:50.277Z,9.36
2022-11-21T10:55:18.834Z,9.29
2022-11-21T10:57:51.474Z,9.31
2022-11-21T11:00:20.899Z,9.25
2022-11-21T11:02:58.410Z,9.20
2022-11-21T11:05:30.945Z,9.13
2022-11-21T11:08:07.846Z,9.07
2022-11-21T11:10:43.569Z,9.00
2022-11-21T11:13:49.933Z,9.02
2022-11-21T11:16:21.835Z,8.97
2022-11-21T11:18:58.429Z,9.02
2022-11-21T11:21:35.607Z,9.20
2022-11-21T11:24:09.344Z,9.21
2022-11-21T11:26:49.517Z,9.33
2022-11-21T11:29:21.685Z,9.55
2022-11-21T11:31:59.742Z,9.90
2022-11-21T11:34:39.742Z,10.17
2022-11-21T11:37:41.466Z,10.35
2022-11-21T11:40:32.000Z,10.46
2022-11-21T11:43:48.799Z,10.81
2022-11-21T11:47:04.395Z,10.85
2022-11-21T11:49:59.382Z,11.26
2022-11-21T11:52:32.728Z,11.37
2022-11-21T11:55:05.783Z,11.56
2022-11-21T11:57:37.121Z,11.68
2022-11-21T12:00:26.334Z,11.93
2022-11-21T12:03:15.357Z,11.98
2022-11-21T12:05:57.331Z,12.13
2022-11-21T12:08:52.722Z,12.27
2022-11-21T12:12:07.998Z,12.21
2022-11-21T12:15:15.373Z,12.40
2022-11-21T12:18:08.814Z,12.35
2022-11-21T12:20:46.199Z,12.09
2022-11-21T12:23:14.523Z,12.25
2022-11-21T12:25:56.822Z,12.15
2022-11-21T12:28:40.213Z,12.28
2022-11-21T12:31:29.684Z,12.10
2022-11-21T12:34:31.622Z,12.29
2022-11-21T12:37:08.443Z,12.25
2022-11-21T12:39:48.178Z,12.11
2022-11-21T12:42:47.232Z,11.86
2022-11-21T12:45:29.484Z,11.46
2022-11-21T12:48:39.090Z,11.21
2022-11-21T12:51:49.942Z,11.07
2022-11-21T12:54:39.430Z,10.82
2022-11-21T12:57:15.589Z,10.68
2022-11-21T13:00:12.333Z,10.43
2022-11-21T13:03:02.937Z,10.29
2022-11-21T13:05:37.795Z,10.04
2022-11-21T13:08:18.691Z,9.88
2022-11-21T13:11:22.353Z,9.85
2022-11-21T13:13:56.827Z,9.81
2022-11-21T13:16:39.736Z,9.68
2022-11-21T13:19:23.908Z,9.61
2022-11-21T13:21:56.440Z,9.52
2022-11-21T13:24:42.631Z,9.42
2022-11-21T13:27:33.357Z,9.41
2022-11-21T13:30:07.000Z,9.37
2022-11-21T13:32:43.633Z,9.22
2022-11-21T13:35:20.378Z,9.11
2022-11-21T13:38:08.401Z,9.08
2022-11-21T13:40:38.795Z,8.91
2022-11-21T13:46:00.225Z,8.74
2022-11-21T13:48:30.816Z,8.54
2022-11-21T13:51:23.484Z,8.50
2022-11-21T13:53:58.047Z,8.39
2022-11-21T13:56:31.937Z,8.38
2022-11-21T13:59:02.465Z,8.28
2022-11-21T14:01:35.790Z,8.15
2022-11-21T14:04:18.230Z,8.11
2022-11-21T14:06:45.977Z,8.01
2022-11-21T14:09:13.686Z,7.97
2022-11-21T14:12:02.243Z,7.89
2022-11-21T14:14:38.887Z,7.93
2022-11-21T14:17:34.872Z,7.85
2022-11-21T14:20:17.202Z,7.85
2022-11-21T14:22:58.530Z,7.78
2022-11-21T14:25:36.290Z,7.76
2022-11-21T14:28:06.615Z,7.66
2022-11-21T14:30:37.674Z,7.66
2022-11-21T14:33:25.970Z,7.64
2022-11-21T14:35:57.865Z,7.57
2022-11-21T14:38:26.169Z,7.56
2022-11-21T14:41:15.875Z,7.55
2022-11-21T14:43:43.278Z,7.50
2022-11-21T14:46:21.017Z,7.43
2022-11-21T14:48:48.779Z,7.38
2022-11-21T14:51:19.498Z,7.42
2022-11-21T14:53:48.876Z,7.43
2022-11-21T14:56:34.422Z,7.38
2022-11-21T14:59:03.524Z,7.34
2022-11-21T15:01:33.400Z,7.31
2022-11-21T15:04:03.851Z,7.34
2022-11-21T15:06:40.497Z,7.31
2022-11-21T15:12:07.909Z,7.30
2022-11-21T15:14:53.236Z,7.25
2022-11-21T15:17:24.384Z,7.21
2022-11-21T15:20:24.350Z,7.16
2022-11-21T15:23:00.630Z,7.14
2022-11-21T15:25:29.162Z,7.03
2022-11-21T15:28:00.409Z,6.99
2022-11-21T15:30:30.950Z,6.91
2022-11-21T15:33:04.726Z,6.87
2022-11-21T15:35:38.379Z,6.79
2022-11-21T15:38:31.301Z,6.72
2022-11-21T15:41:08.090Z,6.61
2022-11-21T15:43:41.455Z,6.57
2022-11-21T15:46:17.995Z,6.52
2022-11-21T15:48:57.365Z,6.37
2022-11-21T15:52:05.630Z,6.22
2022-11-21T15:54:24.045Z,6.12
2022-11-21T15:56:51.835Z,6.17
2022-11-21T15:59:21.266Z,6.16
2022-11-21T16:01:48.979Z,6.06
2022-11-21T16:04:20.972Z,6.04
2022-11-21T16:06:51.576Z,6.08
2022-11-21T16:09:19.275Z,6.03
2022-11-21T16:11:47.233Z,5.89
2022-11-21T16:14:16.508Z,5.82
2022-11-21T16:16:45.002Z,5.82
2022-11-21T16:19:13.057Z,5.78
2022-11-21T16:21:40.634Z,5.84
2022-11-21T16:24:08.681Z,5.78
2022-11-21T16:26:36.076Z,5.70
2022-11-21T16:29:06.761Z,5.67
2022-11-21T16:31:34.585Z,5.65
2022-11-21T16:34:02.651Z,5.63
2022-11-21T16:36:31.557Z,5.62
2022-11-21T16:39:07.656Z,5.60
2022-11-21T16:41:36.554Z,5.46
2022-11-21T16:44:04.477Z,5.38
2022-11-21T16:46:31.943Z,5.45
2022-11-21T16:49:03.274Z,5.36
2022-11-21T16:51:31.127Z,5.34
2022-11-21T16:54:01.738Z,5.29
2022-11-21T16:56:33.487Z,5.20
2022-11-21T16:59:00.911Z,5.14
2022-11-21T17:01:28.818Z,5.08
2022-11-21T17:03:56.621Z,4.99
2022-11-21T17:06:29.108Z,4.99
2022-11-21T17:08:58.862Z,4.93
2022-11-21T17:11:31.468Z,4.89
2022-11-21T17:14:02.301Z,4.83
2022-11-21T17:16:30.322Z,6.05
2022-11-21T17:19:00.378Z,6.45
2022-11-21T17:21:28.951Z,5.69
2022-11-21T17:23:56.409Z,5.47
2022-11-21T17:26:26.737Z,5.44
2022-11-21T17:28:59.620Z,5.32
2022-11-21T17:31:28.077Z,5.26
2022-11-21T17:33:56.956Z,5.09
2022-11-21T17:36:26.378Z,5.40
2022-11-21T17:38:54.514Z,6.50
2022-11-21T17:41:23.976Z,7.18
2022-11-21T17:43:56.104Z,7.14
2022-11-21T17:46:25.662Z,7.15
2022-11-21T17:48:58.038Z,7.40
2022-11-21T17:51:29.524Z,7.78
2022-11-21T17:53:57.245Z,7.75
2022-11-21T17:56:27.171Z,7.93
2022-11-21T17:58:55.781Z,7.93
2022-11-21T18:01:23.613Z,8.14
2022-11-21T18:03:57.655Z,8.13
2022-11-21T18:06:27.085Z,8.33
2022-11-21T18:08:57.704Z,8.97
2022-11-21T18:11:29.665Z,9.25
2022-11-21T18:14:00.077Z,9.34
2022-11-21T18:16:30.202Z,9.55
2022-11-21T18:18:58.568Z,9.79
2022-11-21T18:21:35.477Z,9.76
2022-11-21T18:24:03.296Z,9.55
2022-11-21T18:26:39.247Z,8.68
2022-11-21T18:31:56.590Z,6.78
2022-11-21T18:34:24.010Z,6.23
2022-11-21T18:36:51.455Z,5.74
2022-11-21T18:39:19.391Z,5.21
2022-11-21T18:41:47.171Z,5.29
2022-11-21T18:44:21.324Z,5.13
2022-11-21T18:46:50.326Z,4.97
2022-11-21T18:49:18.256Z,5.08
2022-11-21T18:51:46.031Z,5.15
2022-11-21T18:54:13.706Z,4.95
2022-11-21T18:56:41.396Z,4.70
2022-11-21T18:59:08.845Z,4.45
2022-11-21T19:01:39.519Z,4.60
2022-11-21T19:04:07.521Z,4.45
2022-11-21T19:06:35.088Z,4.52
2022-11-21T19:09:02.823Z,4.42
2022-11-21T19:11:30.519Z,4.56
2022-11-21T19:13:59.402Z,4.50
2022-11-21T19:16:30.947Z,4.43
2022-11-21T19:21:47.312Z,4.45
2022-11-21T19:24:16.190Z,4.54
2022-11-21T19:26:43.669Z,4.31
2022-11-21T19:29:11.587Z,4.08
2022-11-21T19:31:45.262Z,3.93
2022-11-21T19:34:15.139Z,3.99
2022-11-21T19:36:42.956Z,4.08
2022-11-21T19:39:10.569Z,4.02
2022-11-21T19:41:38.822Z,4.04
2022-11-21T19:44:06.293Z,3.86
2022-11-21T19:46:36.395Z,3.78
2022-11-21T19:49:05.814Z,3.71
2022-11-21T19:51:39.139Z,3.67
2022-11-21T19:54:08.884Z,3.53
2022-11-21T19:56:36.682Z,3.46
2022-11-21T19:59:04.555Z,3.42
2022-11-21T20:01:34.087Z,3.39
2022-11-21T20:04:04.083Z,3.39
2022-11-21T20:06:33.960Z,3.48
2022-11-21T20:09:10.290Z,3.22
2022-11-21T20:11:40.419Z,3.21
2022-11-21T20:14:08.727Z,3.21
2022-11-21T20:16:41.975Z,3.28
2022-11-21T20:19:12.058Z,3.31
2022-11-21T20:21:39.539Z,3.50
2022-11-21T20:24:07.785Z,3.60
2022-11-21T20:26:36.787Z,3.64
2022-11-21T20:29:05.322Z,3.73
2022-11-21T20:31:35.377Z,3.76
2022-11-21T20:34:05.946Z,3.78
2022-11-21T20:36:35.129Z,3.71
2022-11-21T20:39:08.593Z,3.64
2022-11-21T20:41:37.514Z,3.63
2022-11-21T20:46:54.749Z,3.77
2022-11-21T20:49:22.537Z,3.49
2022-11-21T20:53:20.627Z,3.22
2022-11-21T20:54:38.803Z,3.29
2022-11-21T20:57:10.445Z,3.37
2022-11-21T20:59:42.355Z,3.43
2022-11-21T21:02:12.323Z,3.31
2022-11-21T21:04:40.050Z,3.18
2022-11-21T21:07:07.853Z,3.21
2022-11-21T21:09:35.364Z,3.33
2022-11-21T21:12:02.871Z,3.41
2022-11-21T21:14:30.548Z,3.50
2022-11-21T21:16:57.874Z,3.49
2022-11-21T21:19:25.265Z,3.52
2022-11-21T21:21:53.049Z,3.50
2022-11-21T21:24:20.554Z,3.49
2022-11-21T21:26:49.030Z,3.43
2022-11-21T21:29:20.435Z,3.49
2022-11-21T21:31:51.529Z,3.47
2022-11-21T21:34:21.997Z,3.48
2022-11-21T21:36:50.948Z,3.54
2022-11-21T21:39:18.595Z,3.57
2022-11-21T21:41:47.242Z,3.49
2022-11-21T21:44:16.100Z,3.56
2022-11-21T21:46:44.185Z,3.51
2022-11-21T21:49:12.136Z,3.51
2022-11-21T21:51:40.192Z,3.50
2022-11-21T21:54:14.876Z,3.51
2022-11-21T21:56:42.587Z,3.50
2022-11-21T21:59:10.029Z,3.48
2022-11-21T22:01:37.455Z,3.51
2022-11-21T22:04:06.292Z,3.52
2022-11-21T22:06:34.470Z,3.50
2022-11-21T22:09:02.459Z,3.46
2022-11-21T22:11:32.482Z,3.51
2022-11-21T22:14:06.465Z,3.46
2022-11-21T22:16:34.444Z,3.44
2022-11-21T22:19:01.986Z,3.42
2022-11-21T22:21:34.951Z,3.43
2022-11-21T22:26:52.797Z,3.42
2022-11-21T22:29:20.644Z,3.39
2022-11-21T22:31:48.103Z,3.42
2022-11-21T22:34:15.727Z,3.31
2022-11-21T22:36:44.793Z,3.23
2022-11-21T22:39:12.327Z,3.15
2022-11-21T22:41:39.810Z,3.09
2022-11-21T22:44:07.593Z,2.96
2022-11-21T22:46:35.193Z,2.91
2022-11-21T22:49:03.678Z,2.90
2022-11-21T22:51:31.395Z,2.89
2022-11-21T22:53:58.886Z,2.85
2022-11-21T22:56:27.153Z,2.76
2022-11-21T22:58:55.000Z,2.74
2022-11-21T23:01:24.896Z,2.67
2022-11-21T23:03:52.897Z,2.62
2022-11-21T23:06:25.374Z,2.74
2022-11-21T23:08:55.425Z,2.75
2022-11-21T23:11:27.613Z,2.77
2022-11-21T23:13:56.381Z,2.84
2022-11-21T23:16:25.336Z,2.86
2022-11-21T23:18:54.224Z,2.75
2022-11-21T23:21:21.771Z,2.73
2022-11-21T23:23:50.086Z,2.67
2022-11-21T23:26:17.600Z,2.78
2022-11-21T23:28:44.981Z,2.77
2022-11-21T23:31:12.930Z,2.74
2022-11-21T23:33:40.478Z,2.75
2022-11-21T23:36:07.985Z,2.87
2022-11-21T23:38:35.663Z,2.74
2022-11-21T23:41:03.236Z,2.66
2022-11-21T23:43:30.629Z,2.68
2022-11-21T23:45:58.330Z,2.60
2022-11-21T23:48:25.905Z,2.48
2022-11-21T23:50:53.371Z,2.39
2022-11-21T23:53:21.520Z,2.49
2022-11-21T23:55:49.353Z,2.53
2022-11-21T23:58:17.906Z,2.61
